sensor_id;sensor_type;location;lat;lon;timestamp;temperature;humidity
9057;DHT22;4563;54.756;9.400;2023-07-02T00:02:08;19.00;76.70
9057;DHT22;4563;54.756;9.400;2023-07-02T00:04:35;19.00;76.80
9057;DHT22;4563;54.756;9.400;2023-07-02T00:07:03;19.00;76.70
9057;DHT22;4563;54.756;9.400;2023-07-02T00:09:30;19.00;76.70
9057;DHT22;4563;54.756;9.400;2023-07-02T00:11:57;19.00;76.60
9057;DHT22;4563;54.756;9.400;2023-07-02T00:14:24;19.00;76.50
9057;DHT22;4563;54.756;9.400;2023-07-02T00:16:51;19.00;76.40
9057;DHT22;4563;54.756;9.400;2023-07-02T00:19:18;19.00;76.30
9057;DHT22;4563;54.756;9.400;2023-07-02T00:21:45;19.00;76.30
9057;DHT22;4563;54.756;9.400;2023-07-02T00:24:13;18.90;76.10
9057;DHT22;4563;54.756;9.400;2023-07-02T00:26:42;18.90;76.10
9057;DHT22;4563;54.756;9.400;2023-07-02T00:29:09;18.90;76.10
9057;DHT22;4563;54.756;9.400;2023-07-02T00:31:36;18.90;76.10
9057;DHT22;4563;54.756;9.400;2023-07-02T00:34:03;18.90;76.20
9057;DHT22;4563;54.756;9.400;2023-07-02T00:36:30;18.90;76.20
9057;DHT22;4563;54.756;9.400;2023-07-02T00:38:58;18.90;76.20
9057;DHT22;4563;54.756;9.400;2023-07-02T00:41:27;18.90;76.20
9057;DHT22;4563;54.756;9.400;2023-07-02T00:43:54;18.90;76.20
9057;DHT22;4563;54.756;9.400;2023-07-02T00:46:22;18.90;76.30
9057;DHT22;4563;54.756;9.400;2023-07-02T00:48:51;18.90;76.30
9057;DHT22;4563;54.756;9.400;2023-07-02T00:51:23;18.80;76.30
9057;DHT22;4563;54.756;9.400;2023-07-02T00:53:51;18.80;76.30
9057;DHT22;4563;54.756;9.400;2023-07-02T00:56:18;18.80;76.40
9057;DHT22;4563;54.756;9.400;2023-07-02T00:58:48;18.80;76.40
9057;DHT22;4563;54.756;9.400;2023-07-02T01:01:17;18.80;76.40
9057;DHT22;4563;54.756;9.400;2023-07-02T01:03:53;18.80;76.40
9057;DHT22;4563;54.756;9.400;2023-07-02T01:06:23;18.80;76.30
9057;DHT22;4563;54.756;9.400;2023-07-02T01:08:54;18.80;76.30
9057;DHT22;4563;54.756;9.400;2023-07-02T01:11:23;18.80;76.20
9057;DHT22;4563;54.756;9.400;2023-07-02T01:13:55;18.80;76.10
9057;DHT22;4563;54.756;9.400;2023-07-02T01:16:22;18.70;75.90
9057;DHT22;4563;54.756;9.400;2023-07-02T01:18:51;18.70;76.50
9057;DHT22;4563;54.756;9.400;2023-07-02T01:21:22;18.70;75.70
9057;DHT22;4563;54.756;9.400;2023-07-02T01:23:50;18.70;75.60
9057;DHT22;4563;54.756;9.400;2023-07-02T01:26:17;18.70;75.50
9057;DHT22;4563;54.756;9.400;2023-07-02T01:28:44;18.70;75.30
9057;DHT22;4563;54.756;9.400;2023-07-02T01:31:11;18.70;75.30
9057;DHT22;4563;54.756;9.400;2023-07-02T01:33:40;18.70;75.20
9057;DHT22;4563;54.756;9.400;2023-07-02T01:36:07;18.70;75.10
9057;DHT22;4563;54.756;9.400;2023-07-02T01:38:36;18.70;75.00
9057;DHT22;4563;54.756;9.400;2023-07-02T01:41:02;18.60;74.80
9057;DHT22;4563;54.756;9.400;2023-07-02T01:43:29;18.60;74.80
9057;DHT22;4563;54.756;9.400;2023-07-02T01:45:56;18.60;74.70
9057;DHT22;4563;54.756;9.400;2023-07-02T01:48:24;18.60;74.50
9057;DHT22;4563;54.756;9.400;2023-07-02T01:50:51;18.60;74.50
9057;DHT22;4563;54.756;9.400;2023-07-02T01:53:18;18.60;74.50
9057;DHT22;4563;54.756;9.400;2023-07-02T01:55:46;18.60;74.50
9057;DHT22;4563;54.756;9.400;2023-07-02T01:58:13;18.60;74.40
9057;DHT22;4563;54.756;9.400;2023-07-02T02:00:40;18.60;74.30
9057;DHT22;4563;54.756;9.400;2023-07-02T02:03:07;18.60;74.10
9057;DHT22;4563;54.756;9.400;2023-07-02T02:05:34;18.50;73.80
9057;DHT22;4563;54.756;9.400;2023-07-02T02:08:01;18.50;73.60
9057;DHT22;4563;54.756;9.400;2023-07-02T02:10:27;18.50;73.40
9057;DHT22;4563;54.756;9.400;2023-07-02T02:12:56;18.50;73.20
9057;DHT22;4563;54.756;9.400;2023-07-02T02:15:22;18.50;73.00
9057;DHT22;4563;54.756;9.400;2023-07-02T02:17:49;18.40;72.70
9057;DHT22;4563;54.756;9.400;2023-07-02T02:20:16;18.40;72.50
9057;DHT22;4563;54.756;9.400;2023-07-02T02:22:43;18.40;72.50
9057;DHT22;4563;54.756;9.400;2023-07-02T02:25:10;18.40;72.30
9057;DHT22;4563;54.756;9.400;2023-07-02T02:27:37;18.30;71.80
9057;DHT22;4563;54.756;9.400;2023-07-02T02:30:07;18.30;71.50
9057;DHT22;4563;54.756;9.400;2023-07-02T02:32:34;18.30;71.40
9057;DHT22;4563;54.756;9.400;2023-07-02T02:35:01;18.30;71.20
9057;DHT22;4563;54.756;9.400;2023-07-02T02:37:27;18.30;71.10
9057;DHT22;4563;54.756;9.400;2023-07-02T02:39:58;18.30;70.90
9057;DHT22;4563;54.756;9.400;2023-07-02T02:42:25;18.30;70.80
9057;DHT22;4563;54.756;9.400;2023-07-02T02:44:54;18.30;70.80
9057;DHT22;4563;54.756;9.400;2023-07-02T02:47:22;18.20;70.70
9057;DHT22;4563;54.756;9.400;2023-07-02T02:49:49;18.20;70.60
9057;DHT22;4563;54.756;9.400;2023-07-02T02:52:16;18.20;70.60
9057;DHT22;4563;54.756;9.400;2023-07-02T02:54:43;18.10;70.50
9057;DHT22;4563;54.756;9.400;2023-07-02T02:57:10;18.20;70.70
9057;DHT22;4563;54.756;9.400;2023-07-02T02:59:37;18.10;70.70
9057;DHT22;4563;54.756;9.400;2023-07-02T03:02:04;18.10;70.70
9057;DHT22;4563;54.756;9.400;2023-07-02T03:04:32;18.10;70.80
9057;DHT22;4563;54.756;9.400;2023-07-02T03:07:03;18.10;70.90
9057;DHT22;4563;54.756;9.400;2023-07-02T03:09:30;18.10;70.90
9057;DHT22;4563;54.756;9.400;2023-07-02T03:11:57;18.10;70.90
9057;DHT22;4563;54.756;9.400;2023-07-02T03:14:23;18.10;70.90
9057;DHT22;4563;54.756;9.400;2023-07-02T03:16:51;18.00;70.90
9057;DHT22;4563;54.756;9.400;2023-07-02T03:19:18;18.10;71.10
9057;DHT22;4563;54.756;9.400;2023-07-02T03:21:46;18.10;71.10
9057;DHT22;4563;54.756;9.400;2023-07-02T03:24:13;18.10;71.30
9057;DHT22;4563;54.756;9.400;2023-07-02T03:26:40;18.00;71.30
9057;DHT22;4563;54.756;9.400;2023-07-02T03:29:07;18.00;71.30
9057;DHT22;4563;54.756;9.400;2023-07-02T03:31:34;18.00;71.30
9057;DHT22;4563;54.756;9.400;2023-07-02T03:34:03;18.00;72.00
9057;DHT22;4563;54.756;9.400;2023-07-02T03:36:30;18.00;71.40
9057;DHT22;4563;54.756;9.400;2023-07-02T03:38:58;18.00;71.40
9057;DHT22;4563;54.756;9.400;2023-07-02T03:41:25;17.90;71.40
9057;DHT22;4563;54.756;9.400;2023-07-02T03:43:52;18.00;71.50
9057;DHT22;4563;54.756;9.400;2023-07-02T03:46:19;17.90;71.40
9057;DHT22;4563;54.756;9.400;2023-07-02T03:48:46;17.90;71.40
9057;DHT22;4563;54.756;9.400;2023-07-02T03:51:12;17.90;71.50
9057;DHT22;4563;54.756;9.400;2023-07-02T03:53:42;17.90;71.40
9057;DHT22;4563;54.756;9.400;2023-07-02T03:56:14;17.90;71.50
9057;DHT22;4563;54.756;9.400;2023-07-02T03:58:41;17.90;71.50
9057;DHT22;4563;54.756;9.400;2023-07-02T04:01:08;17.90;71.50
9057;DHT22;4563;54.756;9.400;2023-07-02T04:03:34;17.90;71.50
9057;DHT22;4563;54.756;9.400;2023-07-02T04:06:01;17.90;71.70
9057;DHT22;4563;54.756;9.400;2023-07-02T04:08:31;17.90;71.80
9057;DHT22;4563;54.756;9.400;2023-07-02T04:10:58;17.80;71.90
9057;DHT22;4563;54.756;9.400;2023-07-02T04:13:26;17.80;71.90
9057;DHT22;4563;54.756;9.400;2023-07-02T04:15:52;17.80;72.00
9057;DHT22;4563;54.756;9.400;2023-07-02T04:18:19;17.80;72.10
9057;DHT22;4563;54.756;9.400;2023-07-02T04:20:46;17.80;72.20
9057;DHT22;4563;54.756;9.400;2023-07-02T04:23:13;17.80;72.20
9057;DHT22;4563;54.756;9.400;2023-07-02T04:25:40;17.80;72.30
9057;DHT22;4563;54.756;9.400;2023-07-02T04:28:07;17.70;72.30
9057;DHT22;4563;54.756;9.400;2023-07-02T04:30:35;17.80;72.40
9057;DHT22;4563;54.756;9.400;2023-07-02T04:33:02;17.80;72.40
9057;DHT22;4563;54.756;9.400;2023-07-02T04:35:31;17.70;72.40
9057;DHT22;4563;54.756;9.400;2023-07-02T04:37:58;17.70;72.50
9057;DHT22;4563;54.756;9.400;2023-07-02T04:40:25;17.70;72.60
9057;DHT22;4563;54.756;9.400;2023-07-02T04:42:51;17.70;72.70
9057;DHT22;4563;54.756;9.400;2023-07-02T04:45:23;17.80;72.90
9057;DHT22;4563;54.756;9.400;2023-07-02T04:47:52;17.70;72.90
9057;DHT22;4563;54.756;9.400;2023-07-02T04:50:19;17.70;73.00
9057;DHT22;4563;54.756;9.400;2023-07-02T04:52:46;17.70;73.00
9057;DHT22;4563;54.756;9.400;2023-07-02T04:55:14;17.70;72.90
9057;DHT22;4563;54.756;9.400;2023-07-02T04:57:41;17.70;72.90
9057;DHT22;4563;54.756;9.400;2023-07-02T05:00:11;17.70;73.00
9057;DHT22;4563;54.756;9.400;2023-07-02T05:02:38;17.80;73.30
9057;DHT22;4563;54.756;9.400;2023-07-02T05:05:07;17.70;73.20
9057;DHT22;4563;54.756;9.400;2023-07-02T05:07:34;17.80;73.40
9057;DHT22;4563;54.756;9.400;2023-07-02T05:10:00;17.70;73.50
9057;DHT22;4563;54.756;9.400;2023-07-02T05:12:28;17.70;73.60
9057;DHT22;4563;54.756;9.400;2023-07-02T05:14:55;17.70;73.70
9057;DHT22;4563;54.756;9.400;2023-07-02T05:17:21;17.70;74.10
9057;DHT22;4563;54.756;9.400;2023-07-02T05:19:48;17.70;74.30
9057;DHT22;4563;54.756;9.400;2023-07-02T05:22:17;17.70;74.50
9057;DHT22;4563;54.756;9.400;2023-07-02T05:24:43;17.80;74.70
9057;DHT22;4563;54.756;9.400;2023-07-02T05:27:11;17.80;74.70
9057;DHT22;4563;54.756;9.400;2023-07-02T05:29:38;17.80;74.70
9057;DHT22;4563;54.756;9.400;2023-07-02T05:32:06;17.80;74.80
9057;DHT22;4563;54.756;9.400;2023-07-02T05:34:35;17.80;74.90
9057;DHT22;4563;54.756;9.400;2023-07-02T05:37:02;17.90;75.00
9057;DHT22;4563;54.756;9.400;2023-07-02T05:39:30;17.90;75.00
9057;DHT22;4563;54.756;9.400;2023-07-02T05:41:57;17.90;74.90
9057;DHT22;4563;54.756;9.400;2023-07-02T05:44:23;18.00;74.90
9057;DHT22;4563;54.756;9.400;2023-07-02T05:46:50;17.90;74.80
9057;DHT22;4563;54.756;9.400;2023-07-02T05:49:17;18.00;74.80
9057;DHT22;4563;54.756;9.400;2023-07-02T05:51:44;18.00;74.60
9057;DHT22;4563;54.756;9.400;2023-07-02T05:54:11;18.00;74.60
9057;DHT22;4563;54.756;9.400;2023-07-02T05:56:39;18.00;74.80
9057;DHT22;4563;54.756;9.400;2023-07-02T05:59:06;18.10;75.10
9057;DHT22;4563;54.756;9.400;2023-07-02T06:01:33;18.10;75.30
9057;DHT22;4563;54.756;9.400;2023-07-02T06:04:00;18.10;75.40
9057;DHT22;4563;54.756;9.400;2023-07-02T06:06:27;18.20;75.70
9057;DHT22;4563;54.756;9.400;2023-07-02T06:08:53;18.30;75.90
9057;DHT22;4563;54.756;9.400;2023-07-02T06:11:20;18.30;76.20
9057;DHT22;4563;54.756;9.400;2023-07-02T06:13:48;18.40;76.30
9057;DHT22;4563;54.756;9.400;2023-07-02T06:16:15;18.50;76.10
9057;DHT22;4563;54.756;9.400;2023-07-02T06:18:42;18.60;76.00
9057;DHT22;4563;54.756;9.400;2023-07-02T06:21:09;18.70;75.80
9057;DHT22;4563;54.756;9.400;2023-07-02T06:23:42;18.70;75.40
9057;DHT22;4563;54.756;9.400;2023-07-02T06:26:08;18.80;75.10
9057;DHT22;4563;54.756;9.400;2023-07-02T06:28:36;18.90;75.20
9057;DHT22;4563;54.756;9.400;2023-07-02T06:31:04;18.90;75.10
9057;DHT22;4563;54.756;9.400;2023-07-02T06:33:31;19.00;75.10
9057;DHT22;4563;54.756;9.400;2023-07-02T06:35:57;19.00;74.90
9057;DHT22;4563;54.756;9.400;2023-07-02T06:38:24;19.10;74.20
9057;DHT22;4563;54.756;9.400;2023-07-02T06:40:51;19.20;73.70
9057;DHT22;4563;54.756;9.400;2023-07-02T06:43:18;19.20;73.10
9057;DHT22;4563;54.756;9.400;2023-07-02T06:45:47;19.30;72.60
9057;DHT22;4563;54.756;9.400;2023-07-02T06:48:15;19.30;72.30
9057;DHT22;4563;54.756;9.400;2023-07-02T06:50:44;19.30;72.00
9057;DHT22;4563;54.756;9.400;2023-07-02T06:53:11;19.40;71.70
9057;DHT22;4563;54.756;9.400;2023-07-02T06:55:38;19.40;71.60
9057;DHT22;4563;54.756;9.400;2023-07-02T06:58:05;19.40;71.40
9057;DHT22;4563;54.756;9.400;2023-07-02T07:00:32;19.40;71.20
9057;DHT22;4563;54.756;9.400;2023-07-02T07:03:01;19.40;70.80
9057;DHT22;4563;54.756;9.400;2023-07-02T07:05:29;19.40;70.70
9057;DHT22;4563;54.756;9.400;2023-07-02T07:07:59;19.40;70.60
9057;DHT22;4563;54.756;9.400;2023-07-02T07:10:27;19.40;70.50
9057;DHT22;4563;54.756;9.400;2023-07-02T07:12:54;19.40;70.10
9057;DHT22;4563;54.756;9.400;2023-07-02T07:15:20;19.50;70.00
9057;DHT22;4563;54.756;9.400;2023-07-02T07:17:47;19.50;69.70
9057;DHT22;4563;54.756;9.400;2023-07-02T07:20:14;19.50;69.40
9057;DHT22;4563;54.756;9.400;2023-07-02T07:22:42;19.50;69.30
9057;DHT22;4563;54.756;9.400;2023-07-02T07:25:09;19.50;69.30
9057;DHT22;4563;54.756;9.400;2023-07-02T07:27:36;19.50;69.10
9057;DHT22;4563;54.756;9.400;2023-07-02T07:30:03;19.50;68.70
9057;DHT22;4563;54.756;9.400;2023-07-02T07:32:30;19.50;68.60
9057;DHT22;4563;54.756;9.400;2023-07-02T07:35:00;19.60;68.80
9057;DHT22;4563;54.756;9.400;2023-07-02T07:37:29;19.60;68.70
9057;DHT22;4563;54.756;9.400;2023-07-02T07:39:57;19.60;69.50
9057;DHT22;4563;54.756;9.400;2023-07-02T07:42:24;19.70;68.60
9057;DHT22;4563;54.756;9.400;2023-07-02T07:44:51;19.70;68.50
9057;DHT22;4563;54.756;9.400;2023-07-02T07:47:18;19.80;68.70
9057;DHT22;4563;54.756;9.400;2023-07-02T07:49:45;19.80;68.30
9057;DHT22;4563;54.756;9.400;2023-07-02T07:52:11;19.90;68.20
9057;DHT22;4563;54.756;9.400;2023-07-02T07:54:38;19.90;68.20
9057;DHT22;4563;54.756;9.400;2023-07-02T07:57:07;20.00;68.00
9057;DHT22;4563;54.756;9.400;2023-07-02T07:59:33;20.10;67.90
9057;DHT22;4563;54.756;9.400;2023-07-02T08:02:00;20.20;67.70
9057;DHT22;4563;54.756;9.400;2023-07-02T08:04:27;20.20;67.50
9057;DHT22;4563;54.756;9.400;2023-07-02T08:06:54;20.30;67.40
9057;DHT22;4563;54.756;9.400;2023-07-02T08:09:23;20.30;67.30
9057;DHT22;4563;54.756;9.400;2023-07-02T08:11:49;20.30;67.30
9057;DHT22;4563;54.756;9.400;2023-07-02T08:14:18;20.40;67.30
9057;DHT22;4563;54.756;9.400;2023-07-02T08:16:45;20.40;67.40
9057;DHT22;4563;54.756;9.400;2023-07-02T08:19:11;20.40;67.50
9057;DHT22;4563;54.756;9.400;2023-07-02T08:21:41;20.40;67.90
9057;DHT22;4563;54.756;9.400;2023-07-02T08:24:07;20.40;67.90
9057;DHT22;4563;54.756;9.400;2023-07-02T08:26:35;20.40;67.80
9057;DHT22;4563;54.756;9.400;2023-07-02T08:29:02;20.40;67.50
9057;DHT22;4563;54.756;9.400;2023-07-02T08:31:31;20.30;67.00
9057;DHT22;4563;54.756;9.400;2023-07-02T08:33:58;20.40;66.70
9057;DHT22;4563;54.756;9.400;2023-07-02T08:36:24;20.40;66.50
9057;DHT22;4563;54.756;9.400;2023-07-02T08:38:53;20.30;66.40
9057;DHT22;4563;54.756;9.400;2023-07-02T08:41:20;20.20;66.50
9057;DHT22;4563;54.756;9.400;2023-07-02T08:43:49;20.20;66.70
9057;DHT22;4563;54.756;9.400;2023-07-02T08:46:17;20.10;66.70
9057;DHT22;4563;54.756;9.400;2023-07-02T08:48:46;20.10;66.90
9057;DHT22;4563;54.756;9.400;2023-07-02T08:51:13;19.90;67.00
9057;DHT22;4563;54.756;9.400;2023-07-02T08:53:40;19.90;67.10
9057;DHT22;4563;54.756;9.400;2023-07-02T08:56:07;19.80;67.40
9057;DHT22;4563;54.756;9.400;2023-07-02T08:58:34;19.80;67.80
9057;DHT22;4563;54.756;9.400;2023-07-02T09:01:04;19.70;68.30
9057;DHT22;4563;54.756;9.400;2023-07-02T09:03:31;19.60;68.60
9057;DHT22;4563;54.756;9.400;2023-07-02T09:05:59;19.60;68.70
9057;DHT22;4563;54.756;9.400;2023-07-02T09:08:27;19.50;68.80
9057;DHT22;4563;54.756;9.400;2023-07-02T09:10:54;19.50;69.30
9057;DHT22;4563;54.756;9.400;2023-07-02T09:13:24;19.50;69.90
9057;DHT22;4563;54.756;9.400;2023-07-02T09:15:50;19.50;70.10
9057;DHT22;4563;54.756;9.400;2023-07-02T09:18:18;19.60;70.40
9057;DHT22;4563;54.756;9.400;2023-07-02T09:20:46;19.60;70.60
9057;DHT22;4563;54.756;9.400;2023-07-02T09:23:14;19.70;70.50
9057;DHT22;4563;54.756;9.400;2023-07-02T09:25:41;19.80;70.50
9057;DHT22;4563;54.756;9.400;2023-07-02T09:28:15;19.90;70.60
9057;DHT22;4563;54.756;9.400;2023-07-02T09:30:52;19.90;70.20
9057;DHT22;4563;54.756;9.400;2023-07-02T09:33:19;20.00;70.60
9057;DHT22;4563;54.756;9.400;2023-07-02T09:35:46;20.10;70.80
9057;DHT22;4563;54.756;9.400;2023-07-02T09:38:15;20.20;70.20
9057;DHT22;4563;54.756;9.400;2023-07-02T09:40:45;20.30;69.50
9057;DHT22;4563;54.756;9.400;2023-07-02T09:43:13;20.40;69.00
9057;DHT22;4563;54.756;9.400;2023-07-02T09:45:43;20.50;68.50
9057;DHT22;4563;54.756;9.400;2023-07-02T09:48:12;20.60;68.10
9057;DHT22;4563;54.756;9.400;2023-07-02T09:50:41;20.70;67.90
9057;DHT22;4563;54.756;9.400;2023-07-02T09:53:08;20.70;67.70
9057;DHT22;4563;54.756;9.400;2023-07-02T09:55:41;20.80;67.40
9057;DHT22;4563;54.756;9.400;2023-07-02T09:58:08;20.80;67.00
9057;DHT22;4563;54.756;9.400;2023-07-02T10:00:38;20.90;66.60
9057;DHT22;4563;54.756;9.400;2023-07-02T10:03:05;21.00;66.30
9057;DHT22;4563;54.756;9.400;2023-07-02T10:05:35;21.00;65.80
9057;DHT22;4563;54.756;9.400;2023-07-02T10:08:12;21.10;65.40
9057;DHT22;4563;54.756;9.400;2023-07-02T10:10:41;21.10;65.60
9057;DHT22;4563;54.756;9.400;2023-07-02T10:13:08;21.10;65.10
9057;DHT22;4563;54.756;9.400;2023-07-02T10:15:35;21.10;65.10
9057;DHT22;4563;54.756;9.400;2023-07-02T10:18:04;21.10;65.30
9057;DHT22;4563;54.756;9.400;2023-07-02T10:20:35;21.00;65.40
9057;DHT22;4563;54.756;9.400;2023-07-02T10:23:02;21.00;65.70
9057;DHT22;4563;54.756;9.400;2023-07-02T10:25:30;21.00;65.90
9057;DHT22;4563;54.756;9.400;2023-07-02T10:27:59;20.90;66.10
9057;DHT22;4563;54.756;9.400;2023-07-02T10:30:33;20.80;66.20
9057;DHT22;4563;54.756;9.400;2023-07-02T10:33:10;20.80;66.40
9057;DHT22;4563;54.756;9.400;2023-07-02T10:35:38;20.70;66.60
9057;DHT22;4563;54.756;9.400;2023-07-02T10:38:06;20.70;66.60
9057;DHT22;4563;54.756;9.400;2023-07-02T10:40:33;20.60;66.60
9057;DHT22;4563;54.756;9.400;2023-07-02T10:43:02;20.50;66.60
9057;DHT22;4563;54.756;9.400;2023-07-02T10:45:32;20.50;66.80
9057;DHT22;4563;54.756;9.400;2023-07-02T10:48:01;20.50;67.30
9057;DHT22;4563;54.756;9.400;2023-07-02T10:50:29;20.40;67.50
9057;DHT22;4563;54.756;9.400;2023-07-02T10:52:56;20.40;67.10
9057;DHT22;4563;54.756;9.400;2023-07-02T10:55:25;20.40;66.60
9057;DHT22;4563;54.756;9.400;2023-07-02T10:58:04;20.40;66.40
9057;DHT22;4563;54.756;9.400;2023-07-02T11:00:32;20.50;66.50
9057;DHT22;4563;54.756;9.400;2023-07-02T11:02:59;20.50;65.80
9057;DHT22;4563;54.756;9.400;2023-07-02T11:05:26;20.60;65.90
9057;DHT22;4563;54.756;9.400;2023-07-02T11:07:53;20.60;66.20
9057;DHT22;4563;54.756;9.400;2023-07-02T11:10:23;20.70;66.60
9057;DHT22;4563;54.756;9.400;2023-07-02T11:12:50;20.70;66.10
9057;DHT22;4563;54.756;9.400;2023-07-02T11:15:19;20.80;65.80
9057;DHT22;4563;54.756;9.400;2023-07-02T11:17:46;20.80;65.40
9057;DHT22;4563;54.756;9.400;2023-07-02T11:20:14;20.90;65.10
9057;DHT22;4563;54.756;9.400;2023-07-02T11:22:41;21.00;64.90
9057;DHT22;4563;54.756;9.400;2023-07-02T11:25:09;21.00;65.00
9057;DHT22;4563;54.756;9.400;2023-07-02T11:27:36;21.10;64.90
9057;DHT22;4563;54.756;9.400;2023-07-02T11:30:04;21.20;64.60
9057;DHT22;4563;54.756;9.400;2023-07-02T11:32:36;21.30;64.10
9057;DHT22;4563;54.756;9.400;2023-07-02T11:35:13;21.30;64.00
9057;DHT22;4563;54.756;9.400;2023-07-02T11:37:41;21.40;63.80
9057;DHT22;4563;54.756;9.400;2023-07-02T11:40:09;21.50;63.60
9057;DHT22;4563;54.756;9.400;2023-07-02T11:42:35;21.50;63.30
9057;DHT22;4563;54.756;9.400;2023-07-02T11:45:03;21.60;63.20
9057;DHT22;4563;54.756;9.400;2023-07-02T11:47:30;21.70;63.00
9057;DHT22;4563;54.756;9.400;2023-07-02T11:50:00;21.70;63.00
9057;DHT22;4563;54.756;9.400;2023-07-02T11:52:29;21.70;63.20
9057;DHT22;4563;54.756;9.400;2023-07-02T11:54:56;21.70;62.90
9057;DHT22;4563;54.756;9.400;2023-07-02T11:57:23;21.80;62.70
9057;DHT22;4563;54.756;9.400;2023-07-02T11:59:50;21.80;62.70
9057;DHT22;4563;54.756;9.400;2023-07-02T12:02:18;21.80;62.50
9057;DHT22;4563;54.756;9.400;2023-07-02T12:04:44;21.80;62.70
9057;DHT22;4563;54.756;9.400;2023-07-02T12:07:13;21.80;62.20
9057;DHT22;4563;54.756;9.400;2023-07-02T12:09:39;21.90;61.70
9057;DHT22;4563;54.756;9.400;2023-07-02T12:12:07;21.80;60.80
9057;DHT22;4563;54.756;9.400;2023-07-02T12:14:37;21.90;60.80
9057;DHT22;4563;54.756;9.400;2023-07-02T12:17:07;21.90;60.30
9057;DHT22;4563;54.756;9.400;2023-07-02T12:19:34;21.80;60.10
9057;DHT22;4563;54.756;9.400;2023-07-02T12:22:00;21.90;60.10
9057;DHT22;4563;54.756;9.400;2023-07-02T12:24:29;21.80;60.00
9057;DHT22;4563;54.756;9.400;2023-07-02T12:26:55;21.80;60.10
9057;DHT22;4563;54.756;9.400;2023-07-02T12:29:22;21.70;60.10
9057;DHT22;4563;54.756;9.400;2023-07-02T12:31:49;21.70;60.00
9057;DHT22;4563;54.756;9.400;2023-07-02T12:34:16;21.70;59.80
9057;DHT22;4563;54.756;9.400;2023-07-02T12:36:43;21.60;59.80
9057;DHT22;4563;54.756;9.400;2023-07-02T12:39:10;21.60;59.60
9057;DHT22;4563;54.756;9.400;2023-07-02T12:41:38;21.60;59.50
9057;DHT22;4563;54.756;9.400;2023-07-02T12:44:05;21.60;59.10
9057;DHT22;4563;54.756;9.400;2023-07-02T12:46:32;21.60;59.10
9057;DHT22;4563;54.756;9.400;2023-07-02T12:48:58;21.60;59.30
9057;DHT22;4563;54.756;9.400;2023-07-02T12:51:25;21.50;59.30
9057;DHT22;4563;54.756;9.400;2023-07-02T12:53:52;21.50;59.10
9057;DHT22;4563;54.756;9.400;2023-07-02T12:56:19;21.50;59.20
9057;DHT22;4563;54.756;9.400;2023-07-02T12:58:47;21.50;59.30
9057;DHT22;4563;54.756;9.400;2023-07-02T13:01:17;21.50;59.30
9057;DHT22;4563;54.756;9.400;2023-07-02T13:03:45;21.40;59.30
9057;DHT22;4563;54.756;9.400;2023-07-02T13:06:13;21.40;59.60
9057;DHT22;4563;54.756;9.400;2023-07-02T13:08:39;21.40;59.70
9057;DHT22;4563;54.756;9.400;2023-07-02T13:11:07;21.40;59.80
9057;DHT22;4563;54.756;9.400;2023-07-02T13:13:34;21.40;59.70
9057;DHT22;4563;54.756;9.400;2023-07-02T13:16:04;21.40;59.30
9057;DHT22;4563;54.756;9.400;2023-07-02T13:18:31;21.40;59.30
9057;DHT22;4563;54.756;9.400;2023-07-02T13:20:57;21.50;59.20
9057;DHT22;4563;54.756;9.400;2023-07-02T13:23:25;21.50;59.10
9057;DHT22;4563;54.756;9.400;2023-07-02T13:25:52;21.50;59.40
9057;DHT22;4563;54.756;9.400;2023-07-02T13:28:18;21.50;59.40
9057;DHT22;4563;54.756;9.400;2023-07-02T13:30:46;21.50;59.70
9057;DHT22;4563;54.756;9.400;2023-07-02T13:33:14;21.50;60.00
9057;DHT22;4563;54.756;9.400;2023-07-02T13:35:41;21.50;59.80
9057;DHT22;4563;54.756;9.400;2023-07-02T13:38:09;21.50;59.70
9057;DHT22;4563;54.756;9.400;2023-07-02T13:40:36;21.40;59.50
9057;DHT22;4563;54.756;9.400;2023-07-02T13:43:02;21.40;59.30
9057;DHT22;4563;54.756;9.400;2023-07-02T13:45:29;21.30;59.30
9057;DHT22;4563;54.756;9.400;2023-07-02T13:47:56;21.30;59.10
9057;DHT22;4563;54.756;9.400;2023-07-02T13:50:24;21.30;59.00
9057;DHT22;4563;54.756;9.400;2023-07-02T13:52:51;21.30;59.20
9057;DHT22;4563;54.756;9.400;2023-07-02T13:55:18;21.30;59.40
9057;DHT22;4563;54.756;9.400;2023-07-02T13:57:46;21.30;59.60
9057;DHT22;4563;54.756;9.400;2023-07-02T14:00:15;21.30;59.90
9057;DHT22;4563;54.756;9.400;2023-07-02T14:02:45;21.20;60.00
9057;DHT22;4563;54.756;9.400;2023-07-02T14:05:12;21.20;60.20
9057;DHT22;4563;54.756;9.400;2023-07-02T14:07:38;21.20;60.60
9057;DHT22;4563;54.756;9.400;2023-07-02T14:10:06;21.20;61.00
9057;DHT22;4563;54.756;9.400;2023-07-02T14:12:33;21.10;61.10
9057;DHT22;4563;54.756;9.400;2023-07-02T14:15:00;21.10;61.30
9057;DHT22;4563;54.756;9.400;2023-07-02T14:17:28;21.10;61.70
9057;DHT22;4563;54.756;9.400;2023-07-02T14:19:55;21.10;61.70
9057;DHT22;4563;54.756;9.400;2023-07-02T14:22:21;21.10;61.70
9057;DHT22;4563;54.756;9.400;2023-07-02T14:24:50;21.00;61.70
9057;DHT22;4563;54.756;9.400;2023-07-02T14:27:17;21.00;61.70
9057;DHT22;4563;54.756;9.400;2023-07-02T14:29:44;21.00;61.40
9057;DHT22;4563;54.756;9.400;2023-07-02T14:32:13;20.90;61.30
9057;DHT22;4563;54.756;9.400;2023-07-02T14:34:41;20.90;61.70
9057;DHT22;4563;54.756;9.400;2023-07-02T14:37:08;20.90;62.10
9057;DHT22;4563;54.756;9.400;2023-07-02T14:39:35;20.80;62.00
9057;DHT22;4563;54.756;9.400;2023-07-02T14:42:02;20.80;62.00
9057;DHT22;4563;54.756;9.400;2023-07-02T14:44:30;20.80;62.00
9057;DHT22;4563;54.756;9.400;2023-07-02T14:46:56;20.80;62.00
9057;DHT22;4563;54.756;9.400;2023-07-02T14:49:23;20.80;62.30
9057;DHT22;4563;54.756;9.400;2023-07-02T14:51:52;20.70;62.60
9057;DHT22;4563;54.756;9.400;2023-07-02T14:54:19;20.80;63.10
9057;DHT22;4563;54.756;9.400;2023-07-02T14:56:45;20.70;63.20
9057;DHT22;4563;54.756;9.400;2023-07-02T14:59:12;20.70;63.50
9057;DHT22;4563;54.756;9.400;2023-07-02T15:01:39;20.60;63.80
9057;DHT22;4563;54.756;9.400;2023-07-02T15:04:06;20.50;64.00
9057;DHT22;4563;54.756;9.400;2023-07-02T15:06:33;20.50;64.20
9057;DHT22;4563;54.756;9.400;2023-07-02T15:09:01;20.40;64.20
9057;DHT22;4563;54.756;9.400;2023-07-02T15:11:28;20.40;64.50
9057;DHT22;4563;54.756;9.400;2023-07-02T15:13:55;20.30;64.80
9057;DHT22;4563;54.756;9.400;2023-07-02T15:16:23;20.30;65.20
9057;DHT22;4563;54.756;9.400;2023-07-02T15:18:50;20.20;65.50
9057;DHT22;4563;54.756;9.400;2023-07-02T15:21:20;20.10;65.40
9057;DHT22;4563;54.756;9.400;2023-07-02T15:23:52;20.10;65.40
9057;DHT22;4563;54.756;9.400;2023-07-02T15:26:20;20.10;65.10
9057;DHT22;4563;54.756;9.400;2023-07-02T15:28:47;20.00;64.80
9057;DHT22;4563;54.756;9.400;2023-07-02T15:31:14;20.00;64.80
9057;DHT22;4563;54.756;9.400;2023-07-02T15:33:41;20.00;64.20
9057;DHT22;4563;54.756;9.400;2023-07-02T15:36:09;20.00;63.90
9057;DHT22;4563;54.756;9.400;2023-07-02T15:38:36;19.90;63.70
9057;DHT22;4563;54.756;9.400;2023-07-02T15:41:08;19.90;63.80
9057;DHT22;4563;54.756;9.400;2023-07-02T15:43:38;19.90;63.90
9057;DHT22;4563;54.756;9.400;2023-07-02T15:46:05;19.90;63.90
9057;DHT22;4563;54.756;9.400;2023-07-02T15:48:32;19.80;63.80
9057;DHT22;4563;54.756;9.400;2023-07-02T15:50:59;19.80;64.00
9057;DHT22;4563;54.756;9.400;2023-07-02T15:53:28;19.80;64.30
9057;DHT22;4563;54.756;9.400;2023-07-02T15:55:55;19.70;64.20
9057;DHT22;4563;54.756;9.400;2023-07-02T15:58:23;19.80;64.30
9057;DHT22;4563;54.756;9.400;2023-07-02T16:00:51;19.80;64.30
9057;DHT22;4563;54.756;9.400;2023-07-02T16:03:18;19.80;64.20
9057;DHT22;4563;54.756;9.400;2023-07-02T16:05:45;19.70;64.10